Hovedside
METAR-TAF:

METAR-TAF

Lufthavner :

Vamdrup

Kolding, Danmark

breddegrad: 55-26N, lengdegrad: 009-20E, høyde over havet: 44 m

Gjeldene værobservasjon

Denne rapporten ble laget for 1 time og 45 minutter siden, klokken 12:50 UTC
Vind 13 kt fra Nordvest, skiftende mellom Vest og Nord-nordvest
Temperatur 22°C
Luftfuktighet 60%
Trykk 1016 hPa
Sikt 10 km eller mer
Spredte skyer i en høyde av 2800 ft

METAR: EKVD 181250Z 31013KT 280V340 9999 SCT028 22/14 Q1016

Tid: 16:35 (14:35 UTC)

Varsel

Denne rapporten ble laget for 2 timer og 35 minutter siden, klokken 12:00 UTC
Varsel gyldig fra 18. klokken 12 UTC til 18. klokken 16 UTC
Vind 10 kt fra Vest-nordvest
Sikt 10 km eller mer
Spredte skyer i en høyde av 3000 ft

TAF: EKVD 181200Z 1812/1816 30010KT 9999 SCT030

Værobservasjoner og værvarsel for over 4000 flyplasser (METAR- og TAF-rapporter).

Tilgjengelige stasjoner er representert av de røde og gule prikkene på kartet.

Hold musepekeren over prikken for å se navnet på stasjonen.

Klikk så for å se værobservasjoner og -varsler.

For å forandre kartet kan du klikke på den grønne knappen med svart kryss for å zoome inn, på den grønne knappen med strek for å zoome ut, eller på de grønne pilene for å se tilstøtende kart.


METAR-TAF: